Time;durP1;ratioP1;P1;durP2;ratioP2;P2;SDS_P1;SDS_P2;PMS_P1;PMS_P2;Temp;Humidity;BMP_temperature;BMP_pressure;BME280_temperature;BME280_humidity;BME280_pressure;Samples;Min_cycle;Max_cycle;Signal;HPM_P1;HPM_P2
2023/09/07 00:01:31;;;;;;;12.95;3.47;;;;;;;;;;4922718;29;20572;-71
2023/09/07 00:03:57;;;;;;;12.35;3.30;;;;;;;;;;4905414;29;20404;-71
2023/09/07 00:06:23;;;;;;;11.90;3.53;;;;;;;;;;4933773;29;20051;-71
2023/09/07 00:08:49;;;;;;;10.85;3.13;;;;;;;;;;4941608;29;20032;-71
2023/09/07 00:11:15;;;;;;;14.93;3.45;;;;;;;;;;4941394;29;20116;-71
2023/09/07 00:13:41;;;;;;;14.48;3.78;;;;;;;;;;4941569;29;20027;-71
2023/09/07 00:16:08;;;;;;;9.85;3.83;;;;;;;;;;4941786;29;20087;-71
2023/09/07 00:18:34;;;;;;;10.65;3.42;;;;;;;;;;4924101;29;20039;-71
2023/09/07 00:21:01;;;;;;;8.48;3.20;;;;;;;;;;4941379;29;20090;-71
2023/09/07 00:23:27;;;;;;;9.65;3.35;;;;;;;;;;4941293;29;20039;-71
2023/09/07 00:25:53;;;;;;;14.43;3.83;;;;;;;;;;4908256;29;20039;-71
2023/09/07 00:28:19;;;;;;;10.38;3.25;;;;;;;;;;4922165;29;20142;-71
2023/09/07 00:30:45;;;;;;;10.52;3.88;;;;;;;;;;4922089;29;20036;-71
2023/09/07 00:33:11;;;;;;;9.45;3.58;;;;;;;;;;4935502;29;20040;-71
2023/09/07 00:35:37;;;;;;;15.25;4.13;;;;;;;;;;4941247;29;20488;-71
2023/09/07 00:38:03;;;;;;;8.32;3.60;;;;;;;;;;4940073;29;20031;-71
2023/09/07 00:40:29;;;;;;;13.95;3.65;;;;;;;;;;4906353;29;20490;-71
2023/09/07 00:42:55;;;;;;;12.15;3.38;;;;;;;;;;4921973;29;20031;-71
2023/09/07 00:45:21;;;;;;;10.65;3.15;;;;;;;;;;4929135;29;20082;-71
2023/09/07 00:47:48;;;;;;;9.00;3.25;;;;;;;;;;4939694;29;20574;-71
2023/09/07 00:50:16;;;;;;;9.07;3.35;;;;;;;;;;4921608;29;20032;-71
2023/09/07 00:52:43;;;;;;;13.85;3.80;;;;;;;;;;4921745;29;20020;-71
2023/09/07 00:55:09;;;;;;;11.35;3.33;;;;;;;;;;4921770;29;20032;-71
2023/09/07 00:57:36;;;;;;;7.80;3.30;;;;;;;;;;4921665;29;20066;-72
2023/09/07 01:00:03;;;;;;;9.13;2.90;;;;;;;;;;4921630;29;20032;-71
2023/09/07 01:02:31;;;;;;;9.10;3.45;;;;;;;;;;4921602;29;20024;-71
2023/09/07 01:04:57;;;;;;;11.82;3.35;;;;;;;;;;4921295;29;20024;-71
2023/09/07 01:07:25;;;;;;;10.20;3.35;;;;;;;;;;4940520;29;20405;-71
2023/09/07 01:09:56;;;;;;;9.38;3.20;;;;;;;;;;4939796;29;20023;-71
2023/09/07 01:12:22;;;;;;;7.63;3.50;;;;;;;;;;4923028;29;20044;-71
2023/09/07 01:14:48;;;;;;;11.65;3.45;;;;;;;;;;4940503;29;20038;-71
2023/09/07 01:17:14;;;;;;;9.57;3.38;;;;;;;;;;4923189;29;20055;-72
2023/09/07 01:19:40;;;;;;;8.32;3.13;;;;;;;;;;4940178;29;20035;-71
2023/09/07 01:22:08;;;;;;;13.15;3.55;;;;;;;;;;4940201;29;20177;-72
2023/09/07 01:24:35;;;;;;;11.57;3.75;;;;;;;;;;4934918;29;20036;-71
2023/09/07 01:27:03;;;;;;;10.45;3.60;;;;;;;;;;4921110;29;20103;-71
2023/09/07 01:29:29;;;;;;;9.18;3.45;;;;;;;;;;4921227;29;20023;-71
2023/09/07 01:31:56;;;;;;;10.85;3.33;;;;;;;;;;4924991;29;20481;-70
2023/09/07 01:34:22;;;;;;;9.02;3.60;;;;;;;;;;4939924;29;20044;-71
2023/09/07 01:36:48;;;;;;;11.32;3.90;;;;;;;;;;4940032;29;20484;-70
2023/09/07 01:39:14;;;;;;;10.70;3.65;;;;;;;;;;4929846;29;20028;-71
2023/09/07 01:41:40;;;;;;;12.43;3.72;;;;;;;;;;4922162;29;20025;-71
2023/09/07 01:44:06;;;;;;;12.57;3.47;;;;;;;;;;4921126;29;20116;-71
2023/09/07 01:46:32;;;;;;;10.35;3.45;;;;;;;;;;4920726;29;20031;-71
2023/09/07 01:48:58;;;;;;;9.40;4.05;;;;;;;;;;4922130;29;20028;-71
2023/09/07 01:51:27;;;;;;;13.02;4.15;;;;;;;;;;4920742;29;20028;-71
2023/09/07 01:53:53;;;;;;;11.88;3.78;;;;;;;;;;4904028;29;20032;-71
2023/09/07 01:56:19;;;;;;;13.80;3.90;;;;;;;;;;4903692;29;20397;-71
2023/09/07 01:58:46;;;;;;;9.63;3.45;;;;;;;;;;4931980;29;20060;-71
2023/09/07 02:01:31;;;;;;;8.27;4.13;;;;;;;;;;4939681;29;20024;-71
2023/09/07 02:03:57;;;;;;;9.07;3.10;;;;;;;;;;4939690;29;20497;-71
2023/09/07 02:06:23;;;;;;;9.00;3.58;;;;;;;;;;4928287;29;20067;-71
2023/09/07 02:08:49;;;;;;;10.88;3.70;;;;;;;;;;4920698;29;20039;-71
2023/09/07 02:11:15;;;;;;;8.38;3.40;;;;;;;;;;4903637;29;20031;-71
2023/09/07 02:13:46;;;;;;;11.35;3.53;;;;;;;;;;4920804;29;20032;-71
2023/09/07 02:16:12;;;;;;;12.63;3.65;;;;;;;;;;4903669;29;20051;-72
2023/09/07 02:18:43;;;;;;;11.23;4.55;;;;;;;;;;4920578;29;20032;-71
2023/09/07 02:21:12;;;;;;;12.98;4.20;;;;;;;;;;4921293;29;20024;-73
2023/09/07 02:23:38;;;;;;;9.82;3.67;;;;;;;;;;4907374;29;20127;-73
2023/09/07 02:26:04;;;;;;;9.85;3.80;;;;;;;;;;4924104;29;20076;-71
2023/09/07 02:28:31;;;;;;;10.02;3.70;;;;;;;;;;4924317;29;20024;-71
2023/09/07 02:31:03;;;;;;;8.13;3.10;;;;;;;;;;4907196;29;20020;-71
2023/09/07 02:33:29;;;;;;;9.75;3.35;;;;;;;;;;4922950;29;20034;-71
2023/09/07 02:35:55;;;;;;;7.32;3.03;;;;;;;;;;4943372;29;20024;-72
2023/09/07 02:38:21;;;;;;;9.88;3.72;;;;;;;;;;4939794;29;20044;-72
2023/09/07 02:40:48;;;;;;;8.30;3.47;;;;;;;;;;4908857;29;20119;-72
2023/09/07 02:43:14;;;;;;;11.88;3.78;;;;;;;;;;4907061;29;20375;-72
2023/09/07 02:45:40;;;;;;;10.35;3.45;;;;;;;;;;4923965;29;20119;-71
2023/09/07 02:48:06;;;;;;;9.82;3.03;;;;;;;;;;4925063;29;20055;-72
2023/09/07 02:50:33;;;;;;;8.20;3.40;;;;;;;;;;4924005;29;20028;-73
2023/09/07 02:53:00;;;;;;;8.27;3.25;;;;;;;;;;4923751;29;20021;-71
2023/09/07 02:55:26;;;;;;;7.57;3.38;;;;;;;;;;4923983;29;20036;-72
2023/09/07 02:57:52;;;;;;;8.63;3.22;;;;;;;;;;4923839;29;20461;-71
2023/09/07 03:00:18;;;;;;;12.30;3.95;;;;;;;;;;4906915;29;20051;-71
2023/09/07 03:02:45;;;;;;;11.30;3.20;;;;;;;;;;4923806;29;20032;-72
2023/09/07 03:05:11;;;;;;;9.05;3.33;;;;;;;;;;4925386;29;20032;-71
2023/09/07 03:07:39;;;;;;;10.90;3.90;;;;;;;;;;4925551;29;20034;-71
2023/09/07 03:10:05;;;;;;;9.15;3.70;;;;;;;;;;4925510;29;20148;-71
2023/09/07 03:12:31;;;;;;;10.25;3.33;;;;;;;;;;4942446;29;20039;-71
2023/09/07 03:14:57;;;;;;;9.00;2.80;;;;;;;;;;4925427;29;20417;-71
2023/09/07 03:17:23;;;;;;;10.07;3.17;;;;;;;;;;4925394;29;20034;-71
2023/09/07 03:19:49;;;;;;;9.02;3.50;;;;;;;;;;4942298;29;20038;-71
2023/09/07 03:22:15;;;;;;;6.38;3.67;;;;;;;;;;4942380;29;20032;-71
2023/09/07 03:24:41;;;;;;;8.50;3.58;;;;;;;;;;4935870;29;20068;-72
2023/09/07 03:27:07;;;;;;;7.32;2.92;;;;;;;;;;4923276;29;20049;-71
2023/09/07 03:29:35;;;;;;;8.48;3.50;;;;;;;;;;4923302;29;20028;-72
2023/09/07 03:32:01;;;;;;;11.65;3.60;;;;;;;;;;4927168;29;20029;-71
2023/09/07 03:34:27;;;;;;;8.70;3.72;;;;;;;;;;4941970;29;20124;-72
2023/09/07 03:36:53;;;;;;;11.13;3.58;;;;;;;;;;4942182;29;20020;-71
2023/09/07 03:39:22;;;;;;;7.85;3.15;;;;;;;;;;4931316;29;20044;-70
2023/09/07 03:41:48;;;;;;;7.68;3.40;;;;;;;;;;4921562;29;20020;-71
2023/09/07 03:44:14;;;;;;;11.20;3.38;;;;;;;;;;4906103;29;20477;-71
2023/09/07 03:46:40;;;;;;;9.55;3.22;;;;;;;;;;4905854;29;20076;-71
2023/09/07 03:49:06;;;;;;;7.95;3.20;;;;;;;;;;4923997;29;20470;-71
2023/09/07 03:51:32;;;;;;;9.07;3.10;;;;;;;;;;4922881;29;20020;-71
2023/09/07 03:53:59;;;;;;;10.52;3.42;;;;;;;;;;4923020;29;20024;-71
2023/09/07 03:56:25;;;;;;;10.23;3.20;;;;;;;;;;4922542;29;20028;-70
2023/09/07 03:58:51;;;;;;;8.52;3.00;;;;;;;;;;4922854;29;20043;-71
2023/09/07 04:01:17;;;;;;;6.25;3.05;;;;;;;;;;4905689;29;20028;-71
2023/09/07 04:03:43;;;;;;;6.13;3.00;;;;;;;;;;4922630;29;20039;-71
2023/09/07 04:06:09;;;;;;;10.82;3.42;;;;;;;;;;4931947;29;20127;-71
2023/09/07 04:08:35;;;;;;;11.27;3.45;;;;;;;;;;4941650;29;20453;-70
2023/09/07 04:11:05;;;;;;;8.07;3.13;;;;;;;;;;4941466;29;20016;-71
2023/09/07 04:13:31;;;;;;;7.75;3.08;;;;;;;;;;4941419;29;20040;-72
2023/09/07 04:15:57;;;;;;;7.05;3.00;;;;;;;;;;4941504;29;20035;-72
2023/09/07 04:18:24;;;;;;;8.20;3.40;;;;;;;;;;4941287;29;20062;-72
2023/09/07 04:20:50;;;;;;;10.00;3.42;;;;;;;;;;4941509;29;20028;-72
2023/09/07 04:23:16;;;;;;;7.18;3.05;;;;;;;;;;4924265;29;20097;-72
2023/09/07 04:25:42;;;;;;;8.02;3.45;;;;;;;;;;4926745;29;20473;-72
2023/09/07 04:28:08;;;;;;;8.02;2.80;;;;;;;;;;4922437;29;20055;-72
2023/09/07 04:30:40;;;;;;;6.75;3.28;;;;;;;;;;4924571;29;20096;-72
2023/09/07 04:33:06;;;;;;;10.77;3.30;;;;;;;;;;4935438;29;20095;-72
2023/09/07 04:35:33;;;;;;;6.85;3.20;;;;;;;;;;4941303;29;20027;-72
2023/09/07 04:37:59;;;;;;;9.68;3.38;;;;;;;;;;4940484;29;20051;-72
2023/09/07 04:40:25;;;;;;;8.73;3.28;;;;;;;;;;4923815;29;20118;-72
2023/09/07 04:42:51;;;;;;;8.70;3.28;;;;;;;;;;4922060;29;20032;-73
2023/09/07 04:45:17;;;;;;;8.88;3.25;;;;;;;;;;4904166;29;20032;-72
2023/09/07 04:47:44;;;;;;;8.57;3.13;;;;;;;;;;4923357;29;20083;-72
2023/09/07 04:50:10;;;;;;;10.00;3.47;;;;;;;;;;4904735;29;20103;-71
2023/09/07 04:52:36;;;;;;;12.00;3.45;;;;;;;;;;4921899;29;20032;-69
2023/09/07 04:55:03;;;;;;;9.10;3.53;;;;;;;;;;4921772;29;20036;-69
2023/09/07 04:57:30;;;;;;;9.02;3.85;;;;;;;;;;4921889;29;20434;-69
2023/09/07 04:59:56;;;;;;;7.90;3.50;;;;;;;;;;4921757;29;20028;-68
2023/09/07 05:02:22;;;;;;;11.23;3.85;;;;;;;;;;4921689;29;20394;-68
2023/09/07 05:04:50;;;;;;;6.40;3.08;;;;;;;;;;4921432;29;20501;-69
2023/09/07 05:07:16;;;;;;;8.95;3.33;;;;;;;;;;4939623;29;20019;-69
2023/09/07 05:09:42;;;;;;;7.20;3.22;;;;;;;;;;4940474;29;20034;-69
2023/09/07 05:12:08;;;;;;;7.72;3.45;;;;;;;;;;4940356;29;20063;-68
2023/09/07 05:14:34;;;;;;;8.02;3.03;;;;;;;;;;4940489;29;20030;-69
2023/09/07 05:17:00;;;;;;;8.82;3.10;;;;;;;;;;4940383;29;20484;-68
2023/09/07 05:19:26;;;;;;;7.85;3.38;;;;;;;;;;4937171;29;20021;-68
2023/09/07 05:21:52;;;;;;;7.65;3.30;;;;;;;;;;4924252;29;20039;-68
2023/09/07 05:24:18;;;;;;;8.63;3.33;;;;;;;;;;4932367;29;20016;-69
2023/09/07 05:26:44;;;;;;;9.10;3.25;;;;;;;;;;4927603;29;20082;-68
2023/09/07 05:29:10;;;;;;;7.40;3.13;;;;;;;;;;4904281;29;20114;-68
2023/09/07 05:31:36;;;;;;;6.88;3.10;;;;;;;;;;4905276;29;20032;-68
2023/09/07 05:34:02;;;;;;;6.28;3.08;;;;;;;;;;4939785;29;20079;-68
2023/09/07 05:36:28;;;;;;;8.13;3.22;;;;;;;;;;4940159;29;20032;-68
2023/09/07 05:38:54;;;;;;;10.35;3.65;;;;;;;;;;4932356;29;20028;-68
2023/09/07 05:41:20;;;;;;;13.18;3.75;;;;;;;;;;4922471;29;20401;-68
2023/09/07 05:43:46;;;;;;;6.50;3.60;;;;;;;;;;4910485;29;20079;-68
2023/09/07 05:46:12;;;;;;;12.70;4.03;;;;;;;;;;4925833;29;20036;-68
2023/09/07 05:48:38;;;;;;;12.13;3.67;;;;;;;;;;4928584;29;20059;-68
2023/09/07 05:51:04;;;;;;;10.88;4.03;;;;;;;;;;4925091;29;20087;-67
2023/09/07 05:53:30;;;;;;;11.45;3.42;;;;;;;;;;4928642;29;20035;-67
2023/09/07 05:55:56;;;;;;;13.82;3.53;;;;;;;;;;4930297;29;20502;-67
2023/09/07 05:58:22;;;;;;;7.95;3.85;;;;;;;;;;4922620;29;20072;-67
2023/09/07 06:00:48;;;;;;;9.95;3.33;;;;;;;;;;4926713;29;20083;-67
2023/09/07 06:03:14;;;;;;;6.88;3.63;;;;;;;;;;4926885;29;20027;-68
2023/09/07 06:05:40;;;;;;;7.93;3.65;;;;;;;;;;4931840;29;20032;-68
2023/09/07 06:08:06;;;;;;;10.27;3.92;;;;;;;;;;4931039;29;20038;-69
2023/09/07 06:10:33;;;;;;;8.57;3.70;;;;;;;;;;4928898;29;20020;-69
2023/09/07 06:12:59;;;;;;;8.60;3.35;;;;;;;;;;4930696;29;21487;-68
2023/09/07 06:15:25;;;;;;;7.95;3.28;;;;;;;;;;4926860;29;20044;-68
2023/09/07 06:17:51;;;;;;;7.88;3.58;;;;;;;;;;4911205;29;20067;-69
2023/09/07 06:20:19;;;;;;;9.38;3.60;;;;;;;;;;4928683;29;20111;-69
2023/09/07 06:22:45;;;;;;;9.82;3.67;;;;;;;;;;4928525;29;20382;-68
2023/09/07 06:25:11;;;;;;;9.85;3.97;;;;;;;;;;4929223;29;20032;-69
2023/09/07 06:27:37;;;;;;;7.32;3.42;;;;;;;;;;4929291;29;20030;-68
2023/09/07 06:30:04;;;;;;;9.73;4.07;;;;;;;;;;4906478;29;20119;-70
2023/09/07 06:32:30;;;;;;;9.35;3.67;;;;;;;;;;4924931;29;20038;-68
2023/09/07 06:34:56;;;;;;;8.18;3.60;;;;;;;;;;4919895;29;20115;-68
2023/09/07 06:37:24;;;;;;;15.60;4.10;;;;;;;;;;4926493;29;20063;-69
2023/09/07 06:39:50;;;;;;;9.98;3.70;;;;;;;;;;4921005;29;20396;-69
2023/09/07 06:42:16;;;;;;;9.60;3.70;;;;;;;;;;4915578;29;20039;-68
2023/09/07 06:44:42;;;;;;;6.13;3.05;;;;;;;;;;4926554;29;20115;-68
2023/09/07 06:47:09;;;;;;;10.05;3.78;;;;;;;;;;4909109;29;20024;-68
2023/09/07 06:49:35;;;;;;;8.75;3.50;;;;;;;;;;4923299;29;20793;-68
2023/09/07 06:52:02;;;;;;;8.18;3.75;;;;;;;;;;4910377;29;20031;-68
2023/09/07 06:54:29;;;;;;;9.48;3.78;;;;;;;;;;4925968;29;20055;-68
2023/09/07 06:56:55;;;;;;;10.30;3.40;;;;;;;;;;4929577;29;20038;-68
2023/09/07 06:59:21;;;;;;;7.45;3.53;;;;;;;;;;4929074;29;20024;-68
2023/09/07 07:01:47;;;;;;;9.55;4.10;;;;;;;;;;4931884;29;20024;-68
2023/09/07 07:04:13;;;;;;;10.65;3.50;;;;;;;;;;4905028;29;20087;-69
2023/09/07 07:06:39;;;;;;;10.23;3.90;;;;;;;;;;4925630;29;20024;-69
2023/09/07 07:09:06;;;;;;;10.27;3.55;;;;;;;;;;4934443;29;20084;-68
2023/09/07 07:11:32;;;;;;;11.98;4.10;;;;;;;;;;4926742;29;20497;-69
2023/09/07 07:13:58;;;;;;;11.05;3.80;;;;;;;;;;4926591;29;20068;-69
2023/09/07 07:16:24;;;;;;;9.25;3.70;;;;;;;;;;4912434;29;20039;-68
2023/09/07 07:18:50;;;;;;;7.45;3.53;;;;;;;;;;4924414;29;20052;-68
2023/09/07 07:21:16;;;;;;;8.75;4.15;;;;;;;;;;4923221;29;20028;-68
2023/09/07 07:23:42;;;;;;;6.25;3.33;;;;;;;;;;4925625;29;20036;-68
2023/09/07 07:26:08;;;;;;;11.10;4.13;;;;;;;;;;4932604;29;20032;-69
2023/09/07 07:28:35;;;;;;;9.65;3.83;;;;;;;;;;4924190;29;20579;-68
2023/09/07 07:31:07;;;;;;;8.85;3.88;;;;;;;;;;4922929;29;20020;-69
2023/09/07 07:33:33;;;;;;;9.73;3.28;;;;;;;;;;4932191;29;20031;-66
2023/09/07 07:35:59;;;;;;;7.70;3.85;;;;;;;;;;4941797;29;20086;-68
2023/09/07 07:38:25;;;;;;;6.97;3.55;;;;;;;;;;4937686;29;20088;-68
2023/09/07 07:40:53;;;;;;;6.80;3.85;;;;;;;;;;4923782;29;20035;-64
2023/09/07 07:43:18;;;;;;;6.80;3.53;;;;;;;;;;4904767;29;20035;-67
2023/09/07 07:45:45;;;;;;;8.27;3.88;;;;;;;;;;4905199;29;20032;-72
2023/09/07 07:48:10;;;;;;;8.88;3.83;;;;;;;;;;4904664;29;20020;-65
2023/09/07 07:50:40;;;;;;;8.20;3.60;;;;;;;;;;4933397;29;20028;-65
2023/09/07 07:53:06;;;;;;;6.97;3.35;;;;;;;;;;4921395;29;20426;-67
2023/09/07 07:55:38;;;;;;;5.95;3.20;;;;;;;;;;4930785;29;20040;-65
2023/09/07 07:58:08;;;;;;;5.40;3.38;;;;;;;;;;4932095;29;20107;-65
2023/09/07 08:00:35;;;;;;;7.75;3.72;;;;;;;;;;4932089;29;20099;-64
2023/09/07 08:03:05;;;;;;;10.98;4.50;;;;;;;;;;4933155;29;20082;-65
2023/09/07 08:05:34;;;;;;;5.60;3.35;;;;;;;;;;4915494;29;20063;-65
2023/09/07 08:08:01;;;;;;;8.43;3.67;;;;;;;;;;4932844;29;20507;-65
2023/09/07 08:10:27;;;;;;;8.68;3.63;;;;;;;;;;4913599;29;20032;-64
2023/09/07 08:12:56;;;;;;;8.15;3.30;;;;;;;;;;4930834;29;20071;-64
2023/09/07 08:15:24;;;;;;;5.65;3.03;;;;;;;;;;4928730;29;20497;-64
2023/09/07 08:17:51;;;;;;;8.57;3.50;;;;;;;;;;4934218;29;20027;-71
2023/09/07 08:20:17;;;;;;;9.18;3.72;;;;;;;;;;4915494;29;20028;-69
2023/09/07 08:22:44;;;;;;;9.77;4.15;;;;;;;;;;4915622;29;20028;-70
2023/09/07 08:25:13;;;;;;;9.15;3.47;;;;;;;;;;4929071;29;20448;-69
2023/09/07 08:27:39;;;;;;;8.07;3.90;;;;;;;;;;4921940;29;20016;-69
2023/09/07 08:30:06;;;;;;;7.47;3.50;;;;;;;;;;4921097;29;20028;-69
2023/09/07 08:32:32;;;;;;;6.28;3.55;;;;;;;;;;4904449;29;20063;-66
2023/09/07 08:35:00;;;;;;;6.47;3.50;;;;;;;;;;4920947;29;20108;-66
2023/09/07 08:37:26;;;;;;;6.70;3.38;;;;;;;;;;4921529;29;20024;-66
2023/09/07 08:39:55;;;;;;;7.57;3.45;;;;;;;;;;4922181;29;20032;-71
2023/09/07 08:42:21;;;;;;;6.65;3.42;;;;;;;;;;4921214;29;20393;-64
2023/09/07 08:44:48;;;;;;;5.30;3.15;;;;;;;;;;4919951;29;20562;-64
2023/09/07 08:47:15;;;;;;;7.22;3.40;;;;;;;;;;4915511;29;20044;-65
2023/09/07 08:49:42;;;;;;;7.05;3.53;;;;;;;;;;4920560;29;20044;-71
2023/09/07 08:52:09;;;;;;;5.20;3.70;;;;;;;;;;4925842;29;20650;-66
2023/09/07 08:54:35;;;;;;;5.53;3.80;;;;;;;;;;4905910;29;20131;-67
2023/09/07 08:57:03;;;;;;;7.13;3.60;;;;;;;;;;4927211;29;20059;-67
2023/09/07 08:59:30;;;;;;;6.00;3.40;;;;;;;;;;4925525;29;20030;-68
2023/09/07 09:01:58;;;;;;;6.90;3.28;;;;;;;;;;4924509;29;20020;-72
2023/09/07 09:04:24;;;;;;;7.80;3.05;;;;;;;;;;4903037;29;20032;-72
2023/09/07 09:06:52;;;;;;;7.32;3.78;;;;;;;;;;4930452;29;20107;-71
2023/09/07 09:09:24;;;;;;;5.68;3.15;;;;;;;;;;4926184;29;20088;-71
2023/09/07 09:11:50;;;;;;;4.68;3.17;;;;;;;;;;4926128;29;20618;-70
2023/09/07 09:14:21;;;;;;;6.53;3.45;;;;;;;;;;4924805;29;20031;-70
2023/09/07 09:16:50;;;;;;;6.30;3.10;;;;;;;;;;4913617;29;20103;-70
2023/09/07 09:19:17;;;;;;;7.75;3.58;;;;;;;;;;4902806;29;20032;-71
2023/09/07 09:21:44;;;;;;;5.03;3.53;;;;;;;;;;4936321;29;20063;-70
2023/09/07 09:24:11;;;;;;;6.35;3.22;;;;;;;;;;4937275;29;20062;-71
2023/09/07 09:26:40;;;;;;;6.80;3.70;;;;;;;;;;4920657;29;20036;-70
2023/09/07 09:29:06;;;;;;;8.75;3.45;;;;;;;;;;4920891;29;20062;-67
2023/09/07 09:31:32;;;;;;;5.15;2.97;;;;;;;;;;4920192;29;20020;-68
2023/09/07 09:33:58;;;;;;;5.32;2.90;;;;;;;;;;4919383;29;20078;-71
2023/09/07 09:36:24;;;;;;;5.50;3.10;;;;;;;;;;4923309;29;20106;-69
2023/09/07 09:38:53;;;;;;;7.10;3.38;;;;;;;;;;4921018;29;20035;-70
2023/09/07 09:41:20;;;;;;;6.30;3.42;;;;;;;;;;4904095;29;20032;-71
2023/09/07 09:43:49;;;;;;;6.63;2.95;;;;;;;;;;4928775;29;20408;-68
2023/09/07 09:46:15;;;;;;;9.77;3.40;;;;;;;;;;4928476;29;20028;-68
2023/09/07 09:48:42;;;;;;;3.03;2.53;;;;;;;;;;4911501;29;20449;-69
2023/09/07 09:51:08;;;;;;;5.47;3.08;;;;;;;;;;4933130;29;20052;-69
2023/09/07 09:53:35;;;;;;;5.50;3.50;;;;;;;;;;4922075;29;20114;-70
2023/09/07 09:56:01;;;;;;;4.55;3.42;;;;;;;;;;4938061;29;20094;-71
2023/09/07 09:58:27;;;;;;;6.25;3.15;;;;;;;;;;4938069;29;20058;-67
2023/09/07 10:00:55;;;;;;;4.85;2.90;;;;;;;;;;4920747;29;20453;-71
2023/09/07 10:03:26;;;;;;;6.63;2.90;;;;;;;;;;4932631;29;20111;-70
2023/09/07 10:05:52;;;;;;;9.23;3.40;;;;;;;;;;4909838;29;20572;-69
2023/09/07 10:08:18;;;;;;;6.05;3.13;;;;;;;;;;4937828;29;20027;-70
2023/09/07 10:10:47;;;;;;;5.63;2.67;;;;;;;;;;4919098;29;20031;-70
2023/09/07 10:13:16;;;;;;;5.80;2.90;;;;;;;;;;4927677;29;20060;-68
2023/09/07 10:15:43;;;;;;;8.40;3.22;;;;;;;;;;4908524;29;20080;-68
2023/09/07 10:18:11;;;;;;;5.57;2.90;;;;;;;;;;4927469;29;20081;-72
2023/09/07 10:20:58;;;;;;;7.95;3.00;;;;;;;;;;4908883;29;20023;-71
2023/09/07 10:23:34;;;;;;;5.45;2.50;;;;;;;;;;4939348;29;20371;-66
2023/09/07 10:26:00;;;;;;;6.93;2.80;;;;;;;;;;4904929;29;20056;-66
2023/09/07 10:28:27;;;;;;;7.32;2.50;;;;;;;;;;4919421;29;20036;-66
2023/09/07 10:31:14;;;;;;;7.38;2.85;;;;;;;;;;4919333;29;20361;-63
2023/09/07 10:33:40;;;;;;;5.93;2.90;;;;;;;;;;4919191;29;20031;-64
2023/09/07 10:36:06;;;;;;;7.00;2.90;;;;;;;;;;4919858;29;20159;-64
2023/09/07 10:38:36;;;;;;;5.63;3.10;;;;;;;;;;4919132;29;20107;-63
2023/09/07 10:41:04;;;;;;;6.38;2.60;;;;;;;;;;4903788;29;20477;-64
2023/09/07 10:43:30;;;;;;;4.63;2.40;;;;;;;;;;4922152;29;20079;-64
2023/09/07 10:45:57;;;;;;;5.07;2.13;;;;;;;;;;4923510;29;20036;-64
2023/09/07 10:48:23;;;;;;;5.80;2.38;;;;;;;;;;4924753;29;20032;-65
2023/09/07 10:50:51;;;;;;;6.45;2.70;;;;;;;;;;4927735;29;20023;-68
2023/09/07 10:53:25;;;;;;;6.55;2.80;;;;;;;;;;4942292;29;20020;-65
2023/09/07 10:55:51;;;;;;;5.63;2.55;;;;;;;;;;4942221;29;20067;-64
2023/09/07 10:58:25;;;;;;;7.50;2.80;;;;;;;;;;4942046;29;20031;-66
2023/09/07 11:00:53;;;;;;;7.15;2.80;;;;;;;;;;4928302;29;20039;-63
2023/09/07 11:03:19;;;;;;;6.40;2.70;;;;;;;;;;4922972;29;20056;-64
2023/09/07 11:05:45;;;;;;;7.07;2.85;;;;;;;;;;4929136;29;20035;-64
2023/09/07 11:08:10;;;;;;;7.93;2.83;;;;;;;;;;4924132;29;20036;-65
2023/09/07 11:10:37;;;;;;;7.03;3.00;;;;;;;;;;4918147;29;20039;-64
2023/09/07 11:13:04;;;;;;;7.20;3.13;;;;;;;;;;4929336;29;20052;-65
2023/09/07 11:15:30;;;;;;;9.52;3.13;;;;;;;;;;4920450;29;20473;-65
2023/09/07 11:17:56;;;;;;;7.03;2.90;;;;;;;;;;4930007;29;20091;-66
2023/09/07 11:20:24;;;;;;;10.35;2.83;;;;;;;;;;4929588;29;20494;-71
2023/09/07 11:22:50;;;;;;;7.47;2.75;;;;;;;;;;4932235;29;20032;-64
2023/09/07 11:25:16;;;;;;;5.32;2.40;;;;;;;;;;4927342;29;20039;-64
2023/09/07 11:27:42;;;;;;;8.75;3.10;;;;;;;;;;4941110;29;20027;-64
2023/09/07 11:30:10;;;;;;;7.00;2.92;;;;;;;;;;4926026;29;20096;-64
2023/09/07 11:32:38;;;;;;;8.27;2.88;;;;;;;;;;4921758;29;20032;-67
2023/09/07 11:35:07;;;;;;;9.38;3.05;;;;;;;;;;4933368;29;20051;-64
2023/09/07 11:37:35;;;;;;;9.35;2.85;;;;;;;;;;4941023;29;20031;-64
2023/09/07 11:40:01;;;;;;;7.18;3.08;;;;;;;;;;4926261;29;20096;-64
2023/09/07 11:42:27;;;;;;;11.45;3.15;;;;;;;;;;4930653;29;20346;-63
2023/09/07 11:44:53;;;;;;;6.25;2.50;;;;;;;;;;4923583;29;20028;-64
2023/09/07 11:47:19;;;;;;;10.18;2.92;;;;;;;;;;4922080;29;20397;-64
2023/09/07 11:49:45;;;;;;;5.82;2.60;;;;;;;;;;4923128;29;20560;-64
2023/09/07 11:52:11;;;;;;;5.32;2.67;;;;;;;;;;4933865;29;20407;-64
2023/09/07 11:54:37;;;;;;;9.23;3.13;;;;;;;;;;4940994;29;20389;-64
2023/09/07 11:57:03;;;;;;;6.72;2.95;;;;;;;;;;4940901;29;20055;-64
2023/09/07 11:59:29;;;;;;;6.65;2.80;;;;;;;;;;4940657;29;20062;-64
2023/09/07 12:01:55;;;;;;;7.70;2.83;;;;;;;;;;4929950;29;20031;-64
2023/09/07 12:04:21;;;;;;;6.22;2.83;;;;;;;;;;4921140;29;20031;-64
2023/09/07 12:06:47;;;;;;;10.18;3.10;;;;;;;;;;4935945;29;20047;-63
2023/09/07 12:09:14;;;;;;;6.63;2.40;;;;;;;;;;4940732;29;20032;-63
2023/09/07 12:11:41;;;;;;;6.82;2.65;;;;;;;;;;4934581;29;20095;-63
2023/09/07 12:14:07;;;;;;;6.43;3.05;;;;;;;;;;4922569;29;20039;-63
2023/09/07 12:16:33;;;;;;;8.65;2.80;;;;;;;;;;4939455;29;20028;-64
2023/09/07 12:18:59;;;;;;;7.97;2.75;;;;;;;;;;4922922;29;20544;-64
2023/09/07 12:21:25;;;;;;;10.80;3.17;;;;;;;;;;4910183;29;20028;-64
2023/09/07 12:23:51;;;;;;;8.48;2.70;;;;;;;;;;4935783;29;20054;-63
2023/09/07 12:26:20;;;;;;;9.68;3.25;;;;;;;;;;4904622;29;20032;-64
2023/09/07 12:28:46;;;;;;;6.97;2.53;;;;;;;;;;4925819;29;20020;-65
2023/09/07 12:31:14;;;;;;;10.27;2.63;;;;;;;;;;4935686;29;20035;-65
2023/09/07 12:33:39;;;;;;;11.25;3.15;;;;;;;;;;4922610;29;20063;-65
2023/09/07 12:36:09;;;;;;;10.85;3.05;;;;;;;;;;4924966;29;20031;-65
2023/09/07 12:38:35;;;;;;;9.80;2.97;;;;;;;;;;4905029;29;20028;-65
2023/09/07 12:41:01;;;;;;;7.85;3.05;;;;;;;;;;4923212;29;20035;-65
2023/09/07 12:43:27;;;;;;;9.68;3.17;;;;;;;;;;4922356;29;20036;-64
2023/09/07 12:45:53;;;;;;;10.63;2.90;;;;;;;;;;4919176;29;20032;-64
2023/09/07 12:48:20;;;;;;;8.88;2.83;;;;;;;;;;4922162;29;20391;-65
2023/09/07 12:50:46;;;;;;;8.80;3.05;;;;;;;;;;4921070;29;20400;-64
2023/09/07 12:53:12;;;;;;;9.95;2.95;;;;;;;;;;4920268;29;20028;-65
2023/09/07 12:55:38;;;;;;;11.07;3.03;;;;;;;;;;4939772;29;20024;-64
2023/09/07 12:58:04;;;;;;;6.53;2.33;;;;;;;;;;4938984;29;20087;-65
2023/09/07 13:00:30;;;;;;;7.20;2.67;;;;;;;;;;4939540;29;20079;-64
2023/09/07 13:02:56;;;;;;;6.68;2.50;;;;;;;;;;4939357;29;20035;-64
2023/09/07 13:05:22;;;;;;;9.23;3.03;;;;;;;;;;4935421;29;20020;-63
2023/09/07 13:07:48;;;;;;;8.55;2.63;;;;;;;;;;4919987;29;20032;-64
2023/09/07 13:10:14;;;;;;;9.05;2.75;;;;;;;;;;4915209;29;20034;-63
2023/09/07 13:12:40;;;;;;;9.27;2.72;;;;;;;;;;4918935;29;20058;-63
2023/09/07 13:15:06;;;;;;;9.05;2.70;;;;;;;;;;4920243;29;20613;-67
2023/09/07 13:17:32;;;;;;;5.95;2.60;;;;;;;;;;4919993;29;20063;-67
2023/09/07 13:19:58;;;;;;;7.43;2.42;;;;;;;;;;4902398;29;20028;-67
2023/09/07 13:22:25;;;;;;;6.00;2.47;;;;;;;;;;4928998;29;20084;-67
2023/09/07 13:24:51;;;;;;;8.95;2.55;;;;;;;;;;4932001;29;20202;-67
2023/09/07 13:27:17;;;;;;;6.70;2.40;;;;;;;;;;4903668;29;20493;-67
2023/09/07 13:29:42;;;;;;;7.15;2.78;;;;;;;;;;4921018;29;20050;-67
2023/09/07 13:32:08;;;;;;;7.53;2.40;;;;;;;;;;4920460;29;20052;-67
2023/09/07 13:34:34;;;;;;;11.20;2.83;;;;;;;;;;4920400;29;20413;-68
2023/09/07 13:37:00;;;;;;;10.50;2.80;;;;;;;;;;4902866;29;20489;-67
2023/09/07 13:39:26;;;;;;;7.60;2.47;;;;;;;;;;4920354;29;20540;-67
2023/09/07 13:41:52;;;;;;;6.45;2.53;;;;;;;;;;4904636;29;20103;-68
2023/09/07 13:44:18;;;;;;;7.78;2.78;;;;;;;;;;4927752;29;20032;-67
2023/09/07 13:46:45;;;;;;;6.95;2.15;;;;;;;;;;4920193;29;20039;-67
2023/09/07 13:49:12;;;;;;;9.00;2.60;;;;;;;;;;4921247;29;20056;-66
2023/09/07 13:51:39;;;;;;;12.43;2.60;;;;;;;;;;4919956;29;20022;-67
2023/09/07 13:54:05;;;;;;;6.50;2.20;;;;;;;;;;4934126;29;20054;-67
2023/09/07 13:56:32;;;;;;;6.30;2.35;;;;;;;;;;4939257;29;20028;-67
2023/09/07 13:58:58;;;;;;;7.65;2.67;;;;;;;;;;4921982;29;20035;-70
2023/09/07 14:01:24;;;;;;;6.15;2.45;;;;;;;;;;4939469;29;20396;-72
2023/09/07 14:03:50;;;;;;;8.85;2.92;;;;;;;;;;4922182;29;20059;-73
2023/09/07 14:06:17;;;;;;;9.55;2.75;;;;;;;;;;4911522;29;20032;-72
2023/09/07 14:08:43;;;;;;;11.13;2.85;;;;;;;;;;4920169;29;20028;-72
2023/09/07 14:11:10;;;;;;;7.65;2.75;;;;;;;;;;4905466;29;20077;-72
2023/09/07 14:13:36;;;;;;;9.93;2.80;;;;;;;;;;4925767;29;20079;-73
2023/09/07 14:16:02;;;;;;;7.70;2.40;;;;;;;;;;4922461;29;20038;-69
2023/09/07 14:18:28;;;;;;;7.55;2.67;;;;;;;;;;4929901;29;20032;-69
2023/09/07 14:20:57;;;;;;;5.32;2.50;;;;;;;;;;4929939;29;20054;-71
2023/09/07 14:23:25;;;;;;;6.78;2.40;;;;;;;;;;4913689;29;20109;-70
2023/09/07 14:25:51;;;;;;;6.03;2.55;;;;;;;;;;4924510;29;20478;-70
2023/09/07 14:28:17;;;;;;;8.00;2.45;;;;;;;;;;4907265;29;20179;-70
2023/09/07 14:30:43;;;;;;;8.35;3.00;;;;;;;;;;4927395;29;20036;-71
2023/09/07 14:33:09;;;;;;;8.20;2.53;;;;;;;;;;4906302;29;20038;-69
2023/09/07 14:35:35;;;;;;;6.30;2.10;;;;;;;;;;4923402;29;20028;-69
2023/09/07 14:38:02;;;;;;;7.20;2.60;;;;;;;;;;4931310;29;20858;-69